Time;durP1;ratioP1;P1;durP2;ratioP2;P2;SDS_P1;SDS_P2;PMS_P1;PMS_P2;Temp;Humidity;BMP_temperature;BMP_pressure;BME280_temperature;BME280_humidity;BME280_pressure;Samples;Min_cycle;Max_cycle;Signal;HPM_P1;HPM_P2
2023/04/11 00:00:17;;;;;;;5.97;1.50;;;9.40;99.90;;;;;;4024384;29;20140;-92
2023/04/11 00:02:29;;;;;;;5.80;1.05;;;9.30;99.90;;;;;;4025234;29;20049;-92
2023/04/11 00:04:44;;;;;;;7.22;1.35;;;9.40;99.90;;;;;;4025762;29;20052;-92
2023/04/11 00:06:52;;;;;;;3.50;1.02;;;9.30;99.90;;;;;;4028232;29;20506;-92
2023/04/11 00:08:55;;;;;;;4.70;0.90;;;9.00;99.90;;;;;;4014675;29;20406;-93
2023/04/11 00:10:58;;;;;;;7.60;2.25;;;;;;;;;;4016146;29;20113;-93
2023/04/11 00:13:18;;;;;;;8.75;1.98;;;;;;;;;;4013969;29;20089;-92
2023/04/11 00:15:23;;;;;;;5.45;0.80;;;;;;;;;;4023800;29;20100;-93
2023/04/11 00:17:27;;;;;;;6.60;1.13;;;8.70;99.90;;;;;;4046776;29;20065;-92
2023/04/11 00:19:28;;;;;;;7.00;1.00;;;8.60;99.90;;;;;;4043926;29;20041;-92
2023/04/11 00:21:38;;;;;;;5.35;1.00;;;8.60;99.90;;;;;;4046972;29;20029;-92
2023/04/11 00:23:40;;;;;;;4.40;1.05;;;8.40;99.90;;;;;;4045215;29;20045;-92
2023/04/11 00:25:41;;;;;;;6.70;0.85;;;8.50;99.90;;;;;;4045004;29;20472;-92
2023/04/11 00:27:48;;;;;;;5.15;1.58;;;8.50;99.90;;;;;;4030294;29;20054;-91
2023/04/11 00:30:09;;;;;;;7.95;1.73;;;;;;;;;;4045287;29;20051;-92
2023/04/11 00:32:20;;;;;;;5.47;1.83;;;;;;;;;;4028566;29;20060;-92
2023/04/11 00:34:22;;;;;;;4.38;1.70;;;;;;;;;;4046018;29;20061;-92
2023/04/11 00:36:43;;;;;;;6.35;1.00;;;9.50;99.90;;;;;;4044098;29;20414;-93
2023/04/11 00:38:53;;;;;;;9.18;1.88;;;8.50;99.90;;;;;;4058905;29;20052;-91
2023/04/11 00:40:56;;;;;;;8.70;1.13;;;8.40;99.90;;;;;;4059614;29;20042;-92
2023/04/11 00:43:04;;;;;;;6.55;2.05;;;8.60;99.90;;;;;;4058763;29;20049;-92
2023/04/11 00:45:07;;;;;;;8.50;1.38;;;8.30;99.90;;;;;;4043172;29;20048;-91
2023/04/11 00:47:08;;;;;;;9.95;2.53;;;8.10;99.90;;;;;;4061759;29;20127;-91
2023/04/11 00:49:10;;;;;;;17.13;2.17;;;7.20;99.90;;;;;;4043193;29;20045;-91
2023/04/11 00:51:14;;;;;;;11.20;1.85;;;8.10;99.90;;;;;;4062593;29;20024;-91
2023/04/11 00:53:17;;;;;;;8.23;2.15;;;8.10;99.90;;;;;;4045231;29;20053;-91
2023/04/11 00:55:20;;;;;;;10.07;1.70;;;6.60;99.90;;;;;;4029604;29;20087;-90
2023/04/11 00:57:24;;;;;;;8.88;1.60;;;8.20;99.90;;;;;;4028850;29;20041;-91
2023/04/11 00:59:27;;;;;;;11.90;1.70;;;8.20;99.90;;;;;;4029151;29;20049;-90
2023/04/11 01:01:34;;;;;;;8.07;1.83;;;8.10;99.90;;;;;;4045881;29;20077;-92
2023/04/11 01:03:37;;;;;;;10.52;1.83;;;8.30;99.90;;;;;;4061747;29;20146;-91
2023/04/11 01:05:38;;;;;;;11.35;1.73;;;8.40;99.90;;;;;;4031422;29;20045;-92
2023/04/11 01:07:51;;;;;;;10.45;1.80;;;8.00;99.90;;;;;;4045704;29;20053;-91
2023/04/11 01:09:53;;;;;;;10.98;2.13;;;8.10;99.90;;;;;;4044332;29;20053;-91
2023/04/11 01:11:55;;;;;;;12.13;2.33;;;;;;;;;;4062264;29;20075;-92
2023/04/11 01:14:03;;;;;;;7.45;1.83;;;;;;;;;;4044971;29;20198;-92
2023/04/11 01:16:05;;;;;;;10.75;2.55;;;;;;;;;;4030087;29;20049;-92
2023/04/11 01:18:24;;;;;;;16.52;3.15;;;;;;;;;;4045791;29;20045;-91
2023/04/11 01:22:50;;;;;;;12.77;1.98;;;8.00;99.90;;;;;;4063367;29;19956;-92
2023/04/11 01:24:57;;;;;;;13.63;2.42;;;7.80;99.90;;;;;;4032903;29;20550;-92
2023/04/11 01:27:00;;;;;;;10.95;1.77;;;7.80;99.90;;;;;;4031434;29;20056;-91
2023/04/11 01:29:03;;;;;;;12.40;2.28;;;8.40;99.90;;;;;;4031302;29;20055;-91
2023/04/11 01:31:16;;;;;;;14.95;2.10;;;7.80;99.90;;;;;;4046471;29;20049;-92
2023/04/11 01:33:23;;;;;;;13.82;2.53;;;7.50;99.90;;;;;;4030642;29;20530;-91
2023/04/11 01:35:31;;;;;;;16.77;2.00;;;7.80;99.90;;;;;;4031030;29;20050;-91
2023/04/11 01:37:40;;;;;;;19.45;2.13;;;7.90;99.90;;;;;;4031086;29;20092;-92
2023/04/11 01:39:40;;;;;;;12.10;1.63;;;8.80;99.90;;;;;;4030388;29;20407;-91
2023/04/11 01:41:59;;;;;;;16.05;2.97;;;7.90;99.90;;;;;;4032061;29;20053;-92
2023/04/11 01:44:10;;;;;;;8.35;1.40;;;7.60;99.90;;;;;;4030791;29;20089;-92
2023/04/11 01:46:26;;;;;;;13.65;2.33;;;8.10;99.90;;;;;;4029157;29;20456;-91
2023/04/11 01:48:56;;;;;;;12.23;2.05;;;7.60;99.90;;;;;;4048763;29;20052;-92
2023/04/11 01:54:41;;;;;;;8.23;2.10;;;8.50;99.90;;;;;;4068819;29;20107;-92
2023/04/11 01:57:05;;;;;;;12.73;2.00;;;7.60;99.90;;;;;;4059180;29;20057;-92
2023/04/11 01:59:29;;;;;;;5.82;1.08;;;8.00;99.90;;;;;;4059090;29;20052;-92
2023/04/11 02:02:17;;;;;;;8.70;1.15;;;8.00;99.90;;;;;;4059108;29;20029;-92
2023/04/11 02:04:19;;;;;;;11.55;1.58;;;7.70;99.90;;;;;;4074541;29;20033;-92
2023/04/11 02:06:20;;;;;;;11.98;1.23;;;8.00;99.90;;;;;;4058861;29;20117;-92
2023/04/11 02:08:21;;;;;;;4.82;0.85;;;7.70;99.90;;;;;;4059037;29;20037;-92
2023/04/11 02:10:23;;;;;;;3.00;0.85;;;7.60;99.90;;;;;;4057961;29;20041;-92
2023/04/11 02:12:36;;;;;;;10.68;1.30;;;8.00;99.90;;;;;;4045085;29;20045;-92
2023/04/11 02:14:43;;;;;;;5.38;0.85;;;8.30;99.90;;;;;;4030001;29;20582;-92
2023/04/11 02:16:53;;;;;;;5.32;0.70;;;7.70;99.90;;;;;;4030735;29;20057;-92
2023/04/11 02:18:55;;;;;;;4.53;1.13;;;7.90;99.90;;;;;;4045048;29;20054;-92
2023/04/11 02:21:02;;;;;;;9.85;0.90;;;7.60;99.90;;;;;;4028727;29;20054;-92
2023/04/11 02:23:04;;;;;;;2.05;0.60;;;7.60;99.90;;;;;;4029446;29;20068;-93
2023/04/11 02:25:16;;;;;;;4.80;0.68;;;7.70;99.90;;;;;;4045029;29;20140;-92
2023/04/11 02:27:21;;;;;;;3.83;0.70;;;7.70;99.90;;;;;;4030939;29;20431;-92
2023/04/11 02:29:23;;;;;;;4.95;0.63;;;6.00;99.90;;;;;;4031783;29;20084;-93
2023/04/11 02:31:24;;;;;;;5.22;0.60;;;8.20;99.90;;;;;;4029003;29;20079;-93
2023/04/11 02:33:35;;;;;;;2.17;0.60;;;;;;;;;;4029001;29;20057;-93
2023/04/11 02:35:36;;;;;;;2.95;0.50;;;;;;;;;;4029333;29;20054;-93
2023/04/11 02:37:48;;;;;;;1.38;0.38;;;;;;;;;;4043776;29;20053;-93
2023/04/11 02:39:55;;;;;;;1.63;0.75;;;;;;;;;;4029224;29;20049;-93
2023/04/11 02:42:07;;;;;;;3.00;0.50;;;7.50;99.90;;;;;;4028996;29;20106;-93
2023/04/11 02:44:17;;;;;;;2.22;0.60;;;7.60;99.90;;;;;;4028475;29;20034;-93
2023/04/11 02:46:27;;;;;;;2.15;0.47;;;7.60;99.90;;;;;;4028014;29;20537;-92
2023/04/11 02:48:43;;;;;;;4.63;0.77;;;10.20;99.90;;;;;;4029355;29;20044;-92
2023/04/11 02:50:50;;;;;;;2.80;0.60;;;7.70;99.90;;;;;;4029056;29;20057;-92
2023/04/11 02:52:58;;;;;;;2.13;0.50;;;7.50;99.90;;;;;;4027192;29;20060;-92
2023/04/11 02:55:08;;;;;;;2.85;0.82;;;8.00;99.90;;;;;;4029324;29;20061;-92
2023/04/11 02:57:09;;;;;;;3.58;0.45;;;7.50;99.90;;;;;;4029069;29;20070;-93
2023/04/11 02:59:18;;;;;;;3.40;0.65;;;7.70;99.90;;;;;;4027400;29;20057;-92
2023/04/11 03:01:28;;;;;;;4.32;0.60;;;7.90;99.90;;;;;;4028926;29;20046;-92
2023/04/11 03:03:43;;;;;;;4.97;0.98;;;7.60;99.90;;;;;;4027175;29;20088;-93
2023/04/11 03:06:00;;;;;;;4.25;0.50;;;7.40;99.90;;;;;;4027478;29;20056;-93
2023/04/11 03:08:15;;;;;;;3.40;0.82;;;7.60;99.90;;;;;;4028598;29;20049;-93
2023/04/11 03:10:22;;;;;;;3.17;0.80;;;7.50;99.90;;;;;;4028619;29;20060;-94
2023/04/11 03:12:51;;;;;;;4.03;0.70;;;7.50;99.90;;;;;;4059477;29;20040;-94
2023/04/11 03:15:19;;;;;;;5.72;1.05;;;7.90;99.90;;;;;;4026971;29;20503;-93
2023/04/11 03:17:21;;;;;;;3.58;0.95;;;6.60;99.90;;;;;;4043751;29;20093;-93
2023/04/11 03:19:25;;;;;;;9.70;0.98;;;7.50;99.90;;;;;;4014696;29;20101;-92
2023/04/11 03:21:37;;;;;;;1.13;0.80;;;6.50;99.90;;;;;;4029147;29;20041;-93
2023/04/11 03:23:46;;;;;;;3.08;1.10;;;7.60;99.90;;;;;;4027868;29;20098;-91
2023/04/11 03:25:55;;;;;;;5.45;1.10;;;7.60;99.90;;;;;;4030967;29;20060;-93
2023/04/11 03:28:04;;;;;;;3.65;0.90;;;7.50;99.90;;;;;;4043808;29;20056;-93
2023/04/11 03:30:11;;;;;;;3.88;1.02;;;7.50;99.90;;;;;;4012307;29;20057;-93
2023/04/11 03:32:13;;;;;;;7.65;1.05;;;9.00;99.90;;;;;;4013887;29;20063;-93
2023/04/11 03:34:33;;;;;;;4.35;0.80;;;7.60;99.90;;;;;;4025826;29;20049;-93
2023/04/11 03:36:34;;;;;;;5.65;0.75;;;7.70;99.90;;;;;;4026221;29;20440;-92
2023/04/11 03:38:36;;;;;;;6.80;0.98;;;8.20;99.90;;;;;;4012435;29;20046;-94
2023/04/11 03:40:36;;;;;;;7.05;1.55;;;7.50;99.90;;;;;;4009642;29;20489;-92
2023/04/11 03:42:45;;;;;;;8.18;0.93;;;7.70;99.90;;;;;;4012114;29;20034;-93
2023/04/11 03:44:53;;;;;;;7.13;1.30;;;5.70;99.90;;;;;;4027353;29;20089;-93
2023/04/11 03:47:02;;;;;;;2.55;0.82;;;7.30;99.90;;;;;;4025474;29;20065;-93
2023/04/11 03:49:22;;;;;;;4.93;1.23;;;7.40;99.90;;;;;;4026993;29;20045;-93
2023/04/11 03:51:41;;;;;;;5.90;0.85;;;6.20;99.90;;;;;;4027312;29;20048;-93
2023/04/11 03:53:58;;;;;;;5.30;1.13;;;7.60;99.90;;;;;;4026503;29;20046;-93
2023/04/11 03:56:00;;;;;;;5.93;1.50;;;7.10;99.90;;;;;;4042178;29;20160;-94
2023/04/11 03:58:03;;;;;;;6.38;1.27;;;7.90;99.90;;;;;;4031351;29;20455;-94
2023/04/11 04:00:21;;;;;;;7.35;1.15;;;7.00;99.90;;;;;;4012285;29;20042;-94
2023/04/11 04:02:28;;;;;;;5.10;1.40;;;7.60;99.90;;;;;;4042789;29;20615;-94
2023/04/11 04:04:31;;;;;;;9.18;1.08;;;7.40;99.90;;;;;;4013987;29;20061;-94
2023/04/11 04:06:34;;;;;;;6.38;1.30;;;7.80;99.90;;;;;;4011447;29;20073;-94
2023/04/11 04:08:36;;;;;;;6.97;1.60;;;7.50;99.90;;;;;;4012460;29;20046;-94
2023/04/11 04:10:43;;;;;;;8.75;1.35;;;8.00;99.90;;;;;;4011567;29;20065;-93
2023/04/11 04:13:02;;;;;;;8.55;1.42;;;7.90;99.90;;;;;;4009938;29;20058;-93
2023/04/11 04:15:20;;;;;;;9.73;1.45;;;8.40;99.90;;;;;;4027065;29;20049;-93
2023/04/11 04:17:38;;;;;;;5.32;1.80;;;7.80;99.90;;;;;;4037648;29;20056;-93
2023/04/11 04:19:50;;;;;;;6.82;1.80;;;7.50;99.90;;;;;;4027059;29;20049;-93
2023/04/11 04:25:11;;;;;;;13.23;1.75;;;7.70;99.90;;;;;;4043959;29;20060;-93
2023/04/11 04:27:23;;;;;;;6.82;1.52;;;7.70;99.90;;;;;;4010855;29;20054;-92
2023/04/11 04:30:02;;;;;;;8.10;1.52;;;8.00;99.90;;;;;;4011713;29;20058;-93
2023/04/11 04:32:09;;;;;;;12.82;1.48;;;7.80;99.90;;;;;;4010837;29;20050;-92
2023/04/11 04:34:23;;;;;;;8.30;1.85;;;8.00;99.90;;;;;;4011915;29;20102;-93
2023/04/11 04:36:30;;;;;;;7.22;2.00;;;8.00;99.90;;;;;;3995354;29;20138;-91
2023/04/11 04:38:37;;;;;;;7.95;1.65;;;7.90;99.90;;;;;;4010218;29;20423;-91
2023/04/11 04:40:44;;;;;;;10.18;2.05;;;7.80;99.90;;;;;;4012046;29;20070;-91
2023/04/11 04:43:02;;;;;;;4.68;1.48;;;7.50;99.90;;;;;;4009774;29;20042;-92
2023/04/11 04:45:16;;;;;;;6.40;2.22;;;8.10;99.90;;;;;;3994818;29;20061;-91
2023/04/11 04:47:28;;;;;;;6.05;1.50;;;8.10;99.90;;;;;;3997396;29;20084;-92
2023/04/11 04:49:35;;;;;;;6.00;1.38;;;7.80;99.90;;;;;;4002172;29;20052;-92
2023/04/11 04:51:40;;;;;;;4.53;1.60;;;7.70;99.90;;;;;;4010783;29;20112;-92
2023/04/11 04:53:48;;;;;;;6.38;1.63;;;7.60;99.90;;;;;;4033117;29;20061;-92
2023/04/11 04:55:55;;;;;;;5.00;1.20;;;6.10;99.90;;;;;;4032203;29;20049;-92
2023/04/11 04:58:02;;;;;;;5.55;1.55;;;8.10;99.90;;;;;;4029894;29;20077;-92
2023/04/11 05:00:08;;;;;;;7.30;1.77;;;7.00;99.90;;;;;;4046944;29;20045;-92
2023/04/11 05:02:16;;;;;;;7.78;1.75;;;7.60;99.90;;;;;;4013921;29;20483;-91
2023/04/11 05:04:24;;;;;;;11.75;2.70;;;7.70;99.90;;;;;;4030629;29;20106;-92
2023/04/11 05:06:31;;;;;;;8.65;1.90;;;6.70;99.90;;;;;;4031297;29;20061;-93
2023/04/11 05:08:32;;;;;;;8.35;1.95;;;7.80;99.90;;;;;;4013144;29;20050;-92
2023/04/11 05:10:33;;;;;;;7.85;1.80;;;7.60;99.90;;;;;;4029019;29;20508;-92
2023/04/11 05:12:52;;;;;;;7.40;1.95;;;8.50;99.90;;;;;;4028802;29;20045;-93
2023/04/11 05:14:55;;;;;;;6.05;1.58;;;7.60;99.90;;;;;;4029783;29;20045;-93
2023/04/11 05:16:56;;;;;;;5.07;1.67;;;6.60;99.90;;;;;;4031306;29;20109;-94
2023/04/11 05:18:58;;;;;;;7.78;1.10;;;7.50;99.90;;;;;;4016383;29;20046;-93
2023/04/11 05:21:06;;;;;;;3.42;0.75;;;7.70;99.90;;;;;;4030265;29;20053;-92
2023/04/11 05:23:09;;;;;;;5.47;1.42;;;7.50;99.90;;;;;;4030734;29;20132;-92
2023/04/11 05:25:11;;;;;;;7.78;1.55;;;7.80;99.90;;;;;;4028561;29;20057;-93
2023/04/11 05:27:13;;;;;;;3.38;1.00;;;7.50;99.90;;;;;;4045440;29;20081;-93
2023/04/11 05:29:16;;;;;;;5.38;1.75;;;7.20;99.90;;;;;;4014219;29;20179;-91
2023/04/11 05:31:19;;;;;;;4.00;1.10;;;6.50;99.90;;;;;;4032117;29;20057;-92
2023/04/11 05:33:30;;;;;;;4.30;2.00;;;7.10;99.90;;;;;;4032363;29;20048;-92
2023/04/11 05:35:31;;;;;;;4.68;1.92;;;7.40;99.90;;;;;;4035050;29;20056;-92
2023/04/11 05:37:43;;;;;;;2.58;0.80;;;6.90;99.90;;;;;;4028577;29;20045;-92
2023/04/11 05:39:58;;;;;;;6.80;1.10;;;7.30;99.90;;;;;;4029471;29;20046;-91
2023/04/11 05:42:04;;;;;;;8.98;1.75;;;6.90;99.90;;;;;;4049145;29;20064;-92
2023/04/11 05:44:14;;;;;;;8.13;1.85;;;7.30;99.90;;;;;;4032871;29;20049;-92
2023/04/11 05:46:24;;;;;;;11.52;2.20;;;7.10;99.90;;;;;;4044620;29;20049;-92
2023/04/11 05:48:34;;;;;;;5.65;1.58;;;7.20;99.90;;;;;;4043143;29;20135;-90
2023/04/11 05:50:35;;;;;;;9.02;1.83;;;7.10;99.90;;;;;;4030371;29;20036;-91
2023/04/11 05:52:36;;;;;;;5.18;1.40;;;8.40;99.90;;;;;;4043317;29;20088;-91
2023/04/11 05:54:39;;;;;;;11.13;1.83;;;5.70;99.90;;;;;;4044367;29;20136;-91
2023/04/11 05:56:50;;;;;;;12.95;2.53;;;7.40;99.90;;;;;;4045007;29;20060;-90
2023/04/11 05:58:53;;;;;;;4.85;1.65;;;7.30;99.90;;;;;;4044829;29;20135;-88
2023/04/11 06:00:56;;;;;;;7.40;1.48;;;7.40;99.90;;;;;;4051259;29;20053;-91
2023/04/11 06:06:13;;;;;;;9.45;1.95;;;6.90;99.90;;;;;;4064729;29;20061;-91
2023/04/11 06:11:36;;;;;;;10.00;1.60;;;7.40;99.90;;;;;;4039353;29;20051;-90
2023/04/11 06:13:39;;;;;;;9.07;2.28;;;7.50;99.90;;;;;;4017725;29;20053;-92
2023/04/11 06:15:48;;;;;;;8.45;1.70;;;7.50;99.90;;;;;;4025103;29;20029;-92
2023/04/11 06:17:51;;;;;;;7.07;2.20;;;7.40;99.90;;;;;;4027983;29;20047;-91
2023/04/11 06:20:09;;;;;;;7.70;1.50;;;8.20;99.90;;;;;;4043766;29;20049;-92
2023/04/11 06:22:12;;;;;;;9.73;2.10;;;7.20;99.90;;;;;;4042196;29;20061;-91
2023/04/11 06:24:18;;;;;;;6.22;2.17;;;7.90;99.90;;;;;;4021084;29;20124;-93
2023/04/11 06:26:28;;;;;;;6.95;1.58;;;7.70;99.90;;;;;;4017269;29;20054;-92
2023/04/11 06:28:37;;;;;;;6.30;1.83;;;9.20;99.90;;;;;;4015651;29;20114;-92
2023/04/11 06:30:51;;;;;;;5.90;1.70;;;7.60;99.90;;;;;;4016427;29;20109;-92
2023/04/11 06:33:11;;;;;;;11.02;3.25;;;7.50;99.90;;;;;;4016066;29;20045;-92
2023/04/11 06:35:13;;;;;;;7.78;2.15;;;5.90;99.90;;;;;;4029789;29;20050;-92
2023/04/11 06:38:08;;;;;;;8.65;1.70;;;7.90;99.90;;;;;;4032506;29;20050;-92
2023/04/11 06:40:21;;;;;;;13.02;1.75;;;7.90;99.90;;;;;;4031761;29;20045;-92
2023/04/11 06:43:14;;;;;;;4.90;1.70;;;7.80;99.90;;;;;;4032334;29;20460;-92
2023/04/11 06:45:57;;;;;;;7.65;1.73;;;8.70;99.90;;;;;;4041198;29;20053;-92
2023/04/11 06:48:29;;;;;;;10.63;1.90;;;7.80;99.90;;;;;;4038856;29;20068;-92
2023/04/11 06:50:47;;;;;;;12.70;2.10;;;8.70;99.90;;;;;;4042755;29;20061;-90
2023/04/11 06:52:53;;;;;;;12.48;1.73;;;6.70;99.90;;;;;;4026869;29;20041;-93
2023/04/11 06:54:58;;;;;;;14.05;2.28;;;7.90;99.90;;;;;;4025717;29;20058;-87
2023/04/11 06:57:01;;;;;;;11.07;2.20;;;8.20;99.90;;;;;;4040850;29;20049;-89
2023/04/11 06:59:02;;;;;;;8.40;2.78;;;7.40;99.90;;;;;;4049822;29;20076;-88
2023/04/11 07:01:02;;;;;;;13.30;1.75;;;8.20;99.90;;;;;;4032611;29;20052;-90
2023/04/11 07:03:06;;;;;;;15.52;2.30;;;8.00;99.90;;;;;;4004146;29;20046;-91
2023/04/11 07:05:14;;;;;;;13.23;2.03;;;7.60;99.90;;;;;;4011302;29;20098;-89
2023/04/11 07:07:15;;;;;;;15.00;2.17;;;6.70;99.90;;;;;;4024842;29;20061;-89
2023/04/11 07:09:16;;;;;;;11.85;2.38;;;8.70;99.90;;;;;;4026768;29;20494;-88
2023/04/11 07:11:20;;;;;;;5.70;1.23;;;7.90;99.90;;;;;;4040397;29;20064;-87
2023/04/11 07:13:21;;;;;;;8.95;2.00;;;8.30;99.90;;;;;;4056865;29;20052;-87
2023/04/11 07:15:22;;;;;;;13.70;2.58;;;7.90;99.90;;;;;;4057284;29;20447;-88
2023/04/11 07:17:23;;;;;;;10.45;2.00;;;8.40;99.90;;;;;;4025120;29;20151;-87
2023/04/11 07:19:26;;;;;;;8.95;1.95;;;8.00;99.90;;;;;;4024089;29;20033;-87
2023/04/11 07:21:27;;;;;;;6.32;1.60;;;8.30;99.90;;;;;;4039795;29;20479;-88
2023/04/11 07:23:29;;;;;;;21.58;3.25;;;8.30;99.90;;;;;;4041312;29;20056;-88
2023/04/11 07:25:32;;;;;;;11.68;2.20;;;9.30;99.90;;;;;;4008755;29;20114;-87
2023/04/11 07:27:34;;;;;;;5.88;1.85;;;8.40;99.90;;;;;;4023210;29;20113;-88
2023/04/11 07:29:36;;;;;;;13.30;2.85;;;8.50;99.90;;;;;;4024506;29;20057;-88
2023/04/11 07:31:37;;;;;;;10.02;2.35;;;8.80;99.90;;;;;;4023366;29;20060;-88
2023/04/11 07:33:38;;;;;;;10.55;2.25;;;8.60;99.90;;;;;;4040737;29;20565;-89
2023/04/11 07:35:40;;;;;;;9.25;2.53;;;8.70;99.90;;;;;;4033857;29;20399;-91
2023/04/11 07:37:44;;;;;;;9.38;1.52;;;8.80;99.90;;;;;;4052803;29;20048;-92
2023/04/11 07:39:45;;;;;;;4.72;1.73;;;8.80;99.90;;;;;;4026189;29;20045;-90
2023/04/11 07:41:46;;;;;;;5.88;1.60;;;8.90;99.90;;;;;;4027147;29;20056;-91
2023/04/11 07:43:48;;;;;;;10.18;2.10;;;8.90;99.90;;;;;;4027196;29;20438;-90
2023/04/11 07:45:50;;;;;;;12.35;3.45;;;9.10;99.90;;;;;;4041375;29;20053;-89
2023/04/11 07:47:51;;;;;;;8.88;1.60;;;9.30;99.90;;;;;;4042652;29;20053;-89
2023/04/11 07:49:55;;;;;;;10.15;1.80;;;9.40;99.90;;;;;;4057016;29;20402;-89
2023/04/11 07:51:56;;;;;;;10.52;2.78;;;9.60;99.90;;;;;;4041481;29;20059;-90
2023/04/11 07:53:57;;;;;;;12.48;1.50;;;9.70;99.90;;;;;;4026115;29;20077;-91
2023/04/11 07:55:59;;;;;;;8.20;2.00;;;9.60;99.90;;;;;;4027546;29;20080;-91
2023/04/11 07:58:01;;;;;;;15.68;2.40;;;9.60;99.90;;;;;;4058770;29;20074;-91
2023/04/11 08:00:05;;;;;;;8.93;1.63;;;9.70;99.90;;;;;;4025907;29;20053;-91
2023/04/11 08:02:07;;;;;;;8.30;1.63;;;9.60;99.90;;;;;;4042091;29;20068;-90
2023/04/11 08:04:07;;;;;;;7.93;1.65;;;9.50;99.90;;;;;;4041167;29;20509;-90
2023/04/11 08:06:08;;;;;;;6.03;1.33;;;9.40;99.90;;;;;;4041382;29;20061;-89
2023/04/11 08:08:10;;;;;;;11.77;1.95;;;9.40;99.90;;;;;;4040328;29;20057;-91
2023/04/11 08:10:11;;;;;;;7.00;1.23;;;;;;;;;;4057910;29;20139;-90
2023/04/11 08:12:12;;;;;;;7.25;1.70;;;9.40;99.90;;;;;;4030823;29;20057;-91
2023/04/11 08:14:13;;;;;;;8.98;1.45;;;9.50;99.90;;;;;;4041415;29;20060;-90
2023/04/11 08:16:15;;;;;;;9.27;2.67;;;9.50;99.90;;;;;;4057439;29;20581;-90
2023/04/11 08:18:20;;;;;;;7.50;1.30;;;9.60;99.90;;;;;;4057195;29;20100;-89
2023/04/11 08:20:23;;;;;;;11.65;1.50;;;9.60;99.90;;;;;;4041265;29;20108;-88
2023/04/11 08:22:23;;;;;;;11.27;2.85;;;10.00;99.90;;;;;;4052958;29;20045;-89
2023/04/11 08:24:24;;;;;;;6.85;1.75;;;10.40;99.90;;;;;;4056445;29;20072;-89
2023/04/11 08:26:25;;;;;;;8.65;1.70;;;10.40;99.90;;;;;;4057499;29;20037;-89
2023/04/11 08:28:26;;;;;;;15.48;2.55;;;10.60;99.90;;;;;;4025840;29;20512;-89
2023/04/11 08:30:28;;;;;;;5.22;1.30;;;10.60;99.90;;;;;;4059795;29;20044;-90
2023/04/11 08:32:30;;;;;;;11.25;2.05;;;10.50;99.90;;;;;;4043905;29;20049;-89
2023/04/11 08:34:32;;;;;;;8.43;1.33;;;10.30;99.90;;;;;;4044182;29;20057;-90
2023/04/11 08:36:35;;;;;;;13.52;2.55;;;10.20;99.90;;;;;;4041707;29;20061;-88
2023/04/11 08:38:36;;;;;;;7.50;1.17;;;10.10;99.90;;;;;;4044432;29;20060;-89
2023/04/11 08:40:36;;;;;;;8.82;1.60;;;10.10;99.90;;;;;;4043558;29;20057;-90
2023/04/11 08:42:38;;;;;;;15.98;2.20;;;10.00;99.90;;;;;;4043725;29;20046;-89
2023/04/11 08:44:40;;;;;;;9.13;1.83;;;10.10;99.90;;;;;;4041782;29;20081;-90
2023/04/11 08:46:42;;;;;;;10.02;1.77;;;10.20;99.90;;;;;;4039558;29;20522;-88
2023/04/11 08:48:44;;;;;;;8.45;1.27;;;10.40;99.90;;;;;;4058043;29;20051;-88
2023/04/11 08:50:44;;;;;;;13.85;1.42;;;10.70;99.90;;;;;;4036378;29;20087;-89
2023/04/11 08:52:48;;;;;;;8.18;2.25;;;11.00;99.90;;;;;;4061345;29;20036;-91
2023/04/11 08:54:55;;;;;;;8.38;1.48;;;11.00;99.90;;;;;;4025523;29;20056;-89
2023/04/11 08:56:57;;;;;;;11.55;1.95;;;11.20;99.90;;;;;;4037712;29;20159;-88
2023/04/11 08:58:57;;;;;;;6.45;1.55;;;11.40;99.90;;;;;;4028520;29;20438;-90
2023/04/11 09:01:26;;;;;;;12.50;3.05;;;11.00;99.90;;;;;;4028998;29;20054;-89
2023/04/11 09:03:27;;;;;;;8.20;1.40;;;11.60;99.90;;;;;;4045133;29;20065;-91
2023/04/11 09:05:30;;;;;;;6.70;1.63;;;11.60;99.90;;;;;;4029078;29;20049;-90
2023/04/11 09:07:47;;;;;;;6.25;1.30;;;11.10;99.90;;;;;;4028975;29;20053;-91
2023/04/11 09:09:48;;;;;;;8.18;1.67;;;11.00;99.90;;;;;;4060214;29;20068;-90
2023/04/11 09:11:53;;;;;;;4.00;1.23;;;10.80;99.90;;;;;;4062110;29;20056;-90
2023/04/11 09:14:09;;;;;;;11.38;1.73;;;10.80;99.90;;;;;;4061827;29;20084;-90
2023/04/11 09:16:12;;;;;;;5.25;1.15;;;11.10;99.90;;;;;;4028692;29;20065;-89
2023/04/11 09:18:36;;;;;;;8.73;1.20;;;11.30;99.90;;;;;;4044206;29;20451;-90
2023/04/11 09:20:37;;;;;;;5.22;2.03;;;11.40;99.90;;;;;;4044275;29;20049;-92
2023/04/11 09:22:38;;;;;;;6.13;1.58;;;11.20;99.90;;;;;;4015672;29;20073;-90
2023/04/11 09:24:41;;;;;;;2.78;0.50;;;10.70;99.90;;;;;;4044650;29;20554;-91
2023/04/11 09:26:42;;;;;;;1.52;0.47;;;10.10;99.90;;;;;;4029486;29;20423;-90
2023/04/11 09:28:52;;;;;;;4.57;1.05;;;9.70;99.90;;;;;;4045523;29;20049;-90
2023/04/11 09:30:55;;;;;;;4.53;0.73;;;;;;;;;;4030042;29;20639;-91
2023/04/11 09:32:56;;;;;;;9.07;1.67;;;9.40;99.90;;;;;;4044066;29;20037;-90
2023/04/11 09:35:14;;;;;;;6.32;1.35;;;9.20;99.90;;;;;;4044266;29;20088;-90
2023/04/11 09:37:16;;;;;;;4.40;0.98;;;9.10;99.90;;;;;;4044198;29;20064;-90
2023/04/11 09:39:23;;;;;;;7.88;1.27;;;9.00;99.90;;;;;;4042706;29;20081;-90
2023/04/11 09:41:34;;;;;;;6.25;1.17;;;9.00;99.90;;;;;;4028541;29;20041;-89
2023/04/11 09:43:54;;;;;;;8.05;1.65;;;9.70;99.90;;;;;;4043883;29;20077;-91
2023/04/11 09:46:11;;;;;;;9.00;1.65;;;10.50;99.90;;;;;;4027911;29;20535;-90
2023/04/11 09:48:12;;;;;;;6.72;1.20;;;11.20;99.90;;;;;;4043307;29;20391;-91
2023/04/11 09:50:14;;;;;;;6.18;1.40;;;11.80;99.90;;;;;;4043587;29;20083;-91
2023/04/11 09:52:21;;;;;;;5.53;1.20;;;12.20;99.90;;;;;;4026861;29;20042;-91
2023/04/11 09:54:25;;;;;;;8.68;1.15;;;12.40;99.90;;;;;;4059592;29;20059;-91
2023/04/11 09:56:27;;;;;;;6.10;1.23;;;12.60;99.90;;;;;;4044594;29;20136;-92
2023/04/11 09:58:33;;;;;;;7.30;0.98;;;12.70;99.90;;;;;;4029064;29;20050;-93
2023/04/11 10:00:34;;;;;;;5.22;0.93;;;12.20;99.90;;;;;;4030530;29;20034;-92
2023/04/11 10:02:35;;;;;;;8.75;1.38;;;11.60;99.90;;;;;;4043627;29;20053;-91
2023/04/11 10:04:39;;;;;;;6.57;1.30;;;11.20;99.90;;;;;;4047216;29;20076;-91
2023/04/11 10:06:51;;;;;;;4.07;0.90;;;10.80;99.90;;;;;;4056782;29;20049;-88
2023/04/11 10:08:52;;;;;;;3.67;0.70;;;10.40;99.90;;;;;;4058530;29;20076;-90
2023/04/11 10:10:55;;;;;;;2.92;0.52;;;10.00;99.90;;;;;;4035686;29;20064;-87
2023/04/11 10:12:56;;;;;;;6.75;1.33;;;9.60;99.90;;;;;;4058150;29;20052;-88
2023/04/11 10:15:04;;;;;;;1.63;0.85;;;9.40;99.90;;;;;;4065767;29;20115;-86
2023/04/11 10:17:13;;;;;;;7.28;1.15;;;9.20;99.90;;;;;;4032086;29;20540;-88
2023/04/11 10:19:18;;;;;;;2.72;0.70;;;9.10;99.90;;;;;;4057798;29;20084;-89
2023/04/11 10:21:33;;;;;;;5.07;1.17;;;9.10;99.90;;;;;;4040090;29;20053;-88
2023/04/11 10:24:09;;;;;;;5.35;1.27;;;9.10;99.90;;;;;;4051018;29;20049;-87
2023/04/11 10:26:13;;;;;;;6.75;0.90;;;9.60;99.90;;;;;;4024953;29;20089;-88
2023/04/11 10:28:32;;;;;;;1.45;0.60;;;10.30;99.90;;;;;;4039813;29;20053;-89
2023/04/11 10:30:40;;;;;;;4.97;1.27;;;10.80;99.90;;;;;;4026469;29;20057;-87
2023/04/11 10:33:14;;;;;;;3.88;1.02;;;11.30;99.90;;;;;;4035151;29;20037;-88
2023/04/11 10:35:16;;;;;;;3.92;0.82;;;11.60;99.90;;;;;;4042536;29;20116;-89
2023/04/11 10:37:29;;;;;;;7.43;1.83;;;11.10;99.90;;;;;;4041236;29;20554;-89
2023/04/11 10:39:59;;;;;;;10.02;1.30;;;10.80;99.90;;;;;;4035539;29;20529;-88
2023/04/11 10:42:41;;;;;;;3.53;0.63;;;10.30;99.90;;;;;;4025305;29;20527;-88
2023/04/11 10:44:41;;;;;;;9.80;1.25;;;9.70;99.90;;;;;;4046872;29;20083;-88
2023/04/11 10:46:49;;;;;;;4.97;0.75;;;9.40;99.90;;;;;;4048495;29;20052;-87
2023/04/11 10:49:03;;;;;;;5.20;0.95;;;9.10;99.90;;;;;;4051225;29;20057;-88
2023/04/11 10:51:23;;;;;;;9.73;2.15;;;8.90;99.90;;;;;;4030667;29;20057;-90
2023/04/11 10:53:35;;;;;;;5.05;0.60;;;9.00;99.90;;;;;;4056408;29;20091;-88
2023/04/11 10:55:50;;;;;;;5.60;2.10;;;8.50;99.90;;;;;;4025577;29;20113;-88
2023/04/11 10:58:12;;;;;;;5.05;0.77;;;8.40;99.90;;;;;;4041475;29;20049;-87
2023/04/11 11:00:15;;;;;;;10.27;1.33;;;8.30;99.90;;;;;;4041172;29;20418;-87
2023/04/11 11:02:18;;;;;;;3.72;0.82;;;;;;;;;;4041797;29;20096;-87
2023/04/11 11:04:21;;;;;;;2.85;0.60;;;;;;;;;;4040708;29;20173;-88
2023/04/11 11:06:24;;;;;;;3.83;0.90;;;;;;;;;;4042152;29;20113;-89
2023/04/11 11:08:29;;;;;;;13.40;1.30;;;;;;;;;;4024836;29;20037;-86
2023/04/11 11:10:46;;;;;;;3.17;0.65;;;;;;;;;;4024547;29;20065;-88
2023/04/11 11:12:54;;;;;;;4.82;0.82;;;;;;;;;;4024677;29;20070;-88
2023/04/11 11:14:58;;;;;;;6.28;1.42;;;;;;;;;;4025627;29;20064;-88
2023/04/11 11:16:59;;;;;;;6.05;1.13;;;8.20;99.90;;;;;;4024491;29;20434;-88
2023/04/11 11:19:01;;;;;;;13.02;1.77;;;8.80;99.90;;;;;;4025431;29;20067;-89
2023/04/11 11:21:03;;;;;;;6.22;1.67;;;9.20;99.90;;;;;;4041036;29;20037;-88
2023/04/11 11:23:06;;;;;;;9.00;2.40;;;9.70;99.90;;;;;;4040568;29;20410;-88
2023/04/11 11:25:08;;;;;;;7.10;1.20;;;10.10;99.90;;;;;;4043737;29;20047;-89
2023/04/11 11:27:25;;;;;;;7.80;1.20;;;10.50;99.90;;;;;;4015740;29;20054;-88
2023/04/11 11:29:36;;;;;;;6.63;1.50;;;10.90;99.90;;;;;;4041021;29;20056;-89
2023/04/11 11:31:44;;;;;;;6.70;1.23;;;11.20;99.90;;;;;;4066135;29;20148;-88